Terminal Aerodrome Forecast
Issued by NWS

Home | Current Version | Previous Version | Text Only | Print | Product List | Glossary On
Versions: 1 2 3 4 5 6 7 8 9 10 11 12 13 14 15 16 17 18 19 20 21 22 23 24 25 26
517
FTUS45 KPSR 252102 AAA
TAFPHX
TAF AMD
KPHX 252102Z 2521/2618 06012KT P6SM SKC
      TEMPO 2521/2524 08014G25KT
     FM260200 03005KT P6SM FEW060
     FM260600 07012KT P6SM SCT060 SCT250=

USA.gov is the U.S. government's official web portal to all federal, state and local government web resources and services.